createdAt,value
2023-11-21T00:02:29.406Z,1.23
2023-11-21T00:05:15.753Z,1.20
2023-11-21T00:08:01.287Z,0.70
2023-11-21T00:10:46.716Z,1.10
2023-11-21T00:13:36.362Z,1.40
2023-11-21T00:16:23.502Z,1.25
2023-11-21T00:19:09.247Z,1.20
2023-11-21T00:21:54.725Z,0.90
2023-11-21T00:24:41.086Z,1.40
2023-11-21T00:27:26.897Z,1.20
2023-11-21T00:30:13.289Z,1.40
2023-11-21T00:32:58.756Z,1.27
2023-11-21T00:35:44.457Z,1.10
2023-11-21T00:38:29.756Z,0.93
2023-11-21T00:41:15.698Z,1.00
2023-11-21T00:44:02.202Z,1.17
2023-11-21T00:46:47.859Z,1.00
2023-11-21T00:49:33.593Z,1.17
2023-11-21T00:52:19.027Z,1.63
2023-11-21T00:55:06.082Z,0.93
2023-11-21T00:57:51.904Z,1.20
2023-11-21T01:00:40.828Z,1.20
2023-11-21T01:03:26.428Z,1.17
2023-11-21T01:06:14.283Z,1.30
2023-11-21T01:09:01.124Z,1.30
2023-11-21T01:11:47.621Z,1.50
2023-11-21T01:14:33.474Z,1.27
2023-11-21T01:17:19.781Z,1.35
2023-11-21T01:20:12.448Z,1.10
2023-11-21T01:22:58.267Z,1.10
2023-11-21T01:25:43.902Z,1.10
2023-11-21T01:28:29.592Z,1.10
2023-11-21T01:31:15.268Z,1.10
2023-11-21T01:34:01.130Z,1.10
2023-11-21T01:36:47.977Z,1.52
2023-11-21T01:39:33.683Z,1.08
2023-11-21T01:42:19.775Z,0.98
2023-11-21T01:45:06.447Z,1.05
2023-11-21T01:47:54.310Z,1.08
2023-11-21T01:50:42.474Z,1.20
2023-11-21T01:53:28.188Z,1.25
2023-11-21T01:56:14.363Z,1.20
2023-11-21T01:58:59.860Z,0.90
2023-11-21T02:01:45.433Z,0.95
2023-11-21T02:04:31.484Z,1.02
2023-11-21T02:07:16.865Z,0.90
2023-11-21T02:10:02.644Z,0.90
2023-11-21T02:12:48.407Z,0.90
2023-11-21T02:15:34.149Z,1.33
2023-11-21T02:18:19.777Z,1.10
2023-11-21T02:21:06.256Z,1.00
2023-11-21T02:23:52.484Z,1.38
2023-11-21T02:26:37.956Z,1.10
2023-11-21T02:29:28.798Z,0.93
2023-11-21T02:32:14.273Z,1.00
2023-11-21T02:35:03.929Z,1.20
2023-11-21T02:37:56.352Z,0.80
2023-11-21T02:40:42.305Z,0.90
2023-11-21T02:43:27.821Z,1.05
2023-11-21T02:46:13.459Z,1.00
2023-11-21T02:48:59.802Z,0.98
2023-11-21T02:51:45.339Z,1.20
2023-11-21T02:54:30.890Z,1.02
2023-11-21T02:57:16.262Z,0.95
2023-11-21T03:00:01.704Z,0.77
2023-11-21T03:02:48.893Z,1.10
2023-11-21T03:05:36.722Z,1.00
2023-11-21T03:08:22.142Z,1.08
2023-11-21T03:11:07.879Z,0.93
2023-11-21T03:13:53.541Z,0.93
2023-11-21T03:16:39.681Z,1.00
2023-11-21T03:19:25.048Z,0.90
2023-11-21T03:22:10.976Z,0.85
2023-11-21T03:24:56.643Z,1.00
2023-11-21T03:27:42.074Z,0.80
2023-11-21T03:30:27.675Z,0.90
2023-11-21T03:33:13.622Z,1.27
2023-11-21T03:35:59.344Z,1.90
2023-11-21T03:38:45.035Z,12.02
2023-11-21T03:41:30.675Z,10.70
2023-11-21T03:44:16.470Z,3.28
2023-11-21T03:47:02.840Z,2.67
2023-11-21T03:49:48.228Z,2.20
2023-11-21T03:52:33.986Z,1.60
2023-11-21T03:55:19.303Z,1.73
2023-11-21T03:58:04.926Z,1.00
2023-11-21T04:00:50.633Z,1.35
2023-11-21T04:03:37.297Z,1.08
2023-11-21T04:06:22.742Z,1.35
2023-11-21T04:09:08.290Z,1.20
2023-11-21T04:11:54.147Z,1.38
2023-11-21T04:14:39.629Z,1.27
2023-11-21T04:17:25.368Z,0.90
2023-11-21T04:20:11.680Z,1.00
2023-11-21T04:22:57.481Z,1.00
2023-11-21T04:25:42.977Z,1.00
2023-11-21T04:28:28.894Z,1.00
2023-11-21T04:31:14.502Z,1.25
2023-11-21T04:34:00.549Z,1.10
2023-11-21T04:36:45.634Z,1.00
2023-11-21T04:39:31.305Z,1.33
2023-11-21T04:42:17.215Z,1.40
2023-11-21T04:45:02.673Z,1.10
2023-11-21T04:47:48.129Z,1.20
2023-11-21T04:50:33.571Z,1.40
2023-11-21T04:53:18.961Z,1.17
2023-11-21T04:56:06.276Z,1.40
2023-11-21T04:58:51.818Z,1.27
2023-11-21T05:01:37.861Z,1.83
2023-11-21T05:04:23.871Z,0.98
2023-11-21T05:07:09.703Z,1.00
2023-11-21T05:09:56.321Z,1.00
2023-11-21T05:12:43.045Z,1.63
2023-11-21T05:15:28.857Z,1.40
2023-11-21T05:18:17.177Z,1.55
2023-11-21T05:21:02.845Z,1.63
2023-11-21T05:23:48.469Z,1.05
2023-11-21T05:26:34.356Z,1.08
2023-11-21T05:29:19.888Z,1.00
2023-11-21T05:32:06.094Z,0.90
2023-11-21T05:34:52.048Z,0.90
2023-11-21T05:37:37.460Z,1.00
2023-11-21T05:40:23.791Z,0.90
2023-11-21T05:43:09.254Z,1.23
2023-11-21T05:45:54.940Z,1.00
2023-11-21T05:48:40.493Z,1.20
2023-11-21T05:51:26.175Z,1.30
2023-11-21T05:54:12.022Z,1.27
2023-11-21T05:56:57.405Z,0.88
2023-11-21T05:59:42.895Z,1.00
2023-11-21T06:02:28.516Z,1.10
2023-11-21T06:05:14.079Z,1.00
2023-11-21T06:08:02.551Z,0.90
2023-11-21T06:10:50.585Z,0.90
2023-11-21T06:13:36.129Z,0.73
2023-11-21T06:16:22.306Z,1.10
2023-11-21T06:19:07.872Z,1.05
2023-11-21T06:21:53.371Z,2.22
2023-11-21T06:24:39.351Z,1.15
2023-11-21T06:27:26.124Z,1.30
2023-11-21T06:30:12.961Z,1.17
2023-11-21T06:32:58.654Z,1.10
2023-11-21T06:35:44.047Z,1.15
2023-11-21T06:38:31.232Z,1.30
2023-11-21T06:41:16.627Z,1.15
2023-11-21T06:44:02.184Z,1.65
2023-11-21T06:46:47.757Z,1.15
2023-11-21T06:49:33.503Z,1.00
2023-11-21T06:52:22.281Z,1.13
2023-11-21T06:55:10.048Z,0.88
2023-11-21T06:57:55.612Z,1.20
2023-11-21T07:00:41.095Z,1.40
2023-11-21T07:03:27.429Z,1.20
2023-11-21T07:06:13.185Z,1.48
2023-11-21T07:08:59.700Z,1.20
2023-11-21T07:11:45.122Z,0.90
2023-11-21T07:14:30.660Z,1.02
2023-11-21T07:17:17.394Z,1.13
2023-11-21T07:20:03.949Z,1.20
2023-11-21T07:22:49.783Z,1.08
2023-11-21T07:25:35.491Z,0.98
2023-11-21T07:28:21.074Z,1.30
2023-11-21T07:31:06.783Z,1.30
2023-11-21T07:33:52.814Z,1.65
2023-11-21T07:36:38.145Z,1.58
2023-11-21T07:39:23.492Z,1.70
2023-11-21T07:42:08.849Z,1.40
2023-11-21T07:44:54.665Z,1.73
2023-11-21T07:47:40.888Z,1.65
2023-11-21T07:50:27.946Z,1.60
2023-11-21T07:53:13.282Z,2.00
2023-11-21T07:56:00.148Z,1.80
2023-11-21T07:58:46.137Z,1.75
2023-11-21T08:01:33.180Z,1.67
2023-11-21T08:04:19.948Z,1.90
2023-11-21T08:07:05.515Z,1.60
2023-11-21T08:09:51.231Z,1.88
2023-11-21T08:12:36.920Z,1.65
2023-11-21T08:15:22.407Z,1.80
2023-11-21T08:18:08.863Z,1.52
2023-11-21T08:20:56.230Z,1.50
2023-11-21T08:23:41.522Z,1.90
2023-11-21T08:26:27.185Z,1.45
2023-11-21T08:29:12.960Z,1.20
2023-11-21T08:31:58.828Z,1.20
2023-11-21T08:34:45.911Z,1.50
2023-11-21T08:37:32.422Z,1.52
2023-11-21T08:40:18.778Z,1.63
2023-11-21T08:43:05.819Z,1.58
2023-11-21T08:45:51.587Z,1.70
2023-11-21T08:48:37.710Z,1.70
2023-11-21T08:51:23.161Z,1.80
2023-11-21T08:54:13.023Z,1.63
2023-11-21T08:57:01.935Z,1.50
2023-11-21T08:59:47.259Z,1.67
2023-11-21T09:02:33.128Z,1.33
2023-11-21T09:05:19.085Z,1.20
2023-11-21T09:08:04.650Z,1.10
2023-11-21T09:10:50.068Z,1.40
2023-11-21T09:13:35.881Z,1.40
2023-11-21T09:16:21.544Z,1.67
2023-11-21T09:19:07.214Z,1.75
2023-11-21T09:21:52.778Z,1.35
2023-11-21T09:24:39.968Z,1.23
2023-11-21T09:27:28.754Z,1.20
2023-11-21T09:30:15.652Z,1.30
2023-11-21T09:33:01.946Z,1.08
2023-11-21T09:35:47.641Z,1.20
2023-11-21T09:38:32.964Z,1.00
2023-11-21T09:41:31.680Z,1.00
2023-11-21T09:44:21.201Z,0.98
2023-11-21T09:47:11.914Z,0.88
2023-11-21T09:50:02.255Z,1.00
2023-11-21T09:53:06.345Z,1.10
2023-11-21T09:55:53.682Z,0.80
2023-11-21T09:58:39.438Z,1.00
2023-11-21T10:01:27.428Z,0.80
2023-11-21T10:04:13.741Z,0.77
2023-11-21T10:06:59.628Z,1.00
2023-11-21T10:09:45.950Z,0.85
2023-11-21T10:12:33.681Z,0.80
2023-11-21T10:15:19.320Z,0.80
2023-11-21T10:18:10.633Z,1.00
2023-11-21T10:20:58.039Z,0.85
2023-11-21T10:23:44.851Z,0.80
2023-11-21T10:26:40.563Z,1.02
2023-11-21T10:29:36.740Z,1.20
2023-11-21T10:32:22.232Z,1.10
2023-11-21T10:35:11.431Z,1.08
2023-11-21T10:38:04.376Z,0.90
2023-11-21T10:40:51.115Z,1.20
2023-11-21T10:43:36.878Z,1.40
2023-11-21T10:46:22.672Z,1.45
2023-11-21T10:49:08.001Z,0.90
2023-11-21T10:51:55.138Z,1.20
2023-11-21T10:54:40.837Z,1.20
2023-11-21T10:57:26.940Z,1.08
2023-11-21T11:00:14.648Z,1.10
2023-11-21T11:03:01.862Z,1.30
2023-11-21T11:05:53.460Z,1.45
2023-11-21T11:08:40.600Z,1.42
2023-11-21T11:11:26.802Z,1.42
2023-11-21T11:14:14.112Z,1.20
2023-11-21T11:17:01.474Z,1.60
2023-11-21T11:19:48.518Z,1.02
2023-11-21T11:23:00.346Z,2.30
2023-11-21T11:26:04.849Z,6.45
2023-11-21T11:29:12.594Z,3.30
2023-11-21T11:32:27.045Z,1.95
2023-11-21T11:35:17.940Z,1.52
2023-11-21T11:38:04.083Z,1.40
2023-11-21T11:40:54.842Z,1.23
2023-11-21T11:43:46.006Z,1.10
2023-11-21T11:46:47.691Z,1.10
2023-11-21T11:49:33.452Z,1.30
2023-11-21T11:52:38.032Z,1.20
2023-11-21T11:55:25.855Z,1.50
2023-11-21T11:58:12.871Z,1.17
2023-11-21T12:00:59.564Z,1.02
2023-11-21T12:03:45.336Z,1.00
2023-11-21T12:06:36.952Z,0.90
2023-11-21T12:09:25.106Z,1.08
2023-11-21T12:12:10.734Z,1.13
2023-11-21T12:14:56.698Z,0.90
2023-11-21T12:17:44.733Z,1.08
2023-11-21T12:20:30.636Z,1.05
2023-11-21T12:23:16.445Z,0.82
2023-11-21T12:26:02.337Z,0.98
2023-11-21T12:28:57.096Z,1.00
2023-11-21T12:31:42.823Z,0.90
2023-11-21T12:34:28.297Z,1.15
2023-11-21T12:37:13.957Z,0.73
2023-11-21T12:39:59.559Z,0.80
2023-11-21T12:42:47.585Z,0.80
2023-11-21T12:45:33.167Z,0.70
2023-11-21T12:48:25.365Z,0.80
2023-11-21T12:51:12.401Z,0.98
2023-11-21T12:53:59.719Z,0.90
2023-11-21T12:56:48.818Z,0.50
2023-11-21T12:59:34.718Z,0.80
2023-11-21T13:02:20.279Z,0.70
2023-11-21T13:05:13.678Z,0.85
2023-11-21T13:08:04.384Z,0.70
2023-11-21T13:10:53.014Z,0.93
2023-11-21T13:13:43.697Z,0.80
2023-11-21T13:16:29.140Z,0.73
2023-11-21T13:19:15.383Z,0.73
2023-11-21T13:22:03.105Z,0.80
2023-11-21T13:24:49.045Z,0.68
2023-11-21T13:27:35.684Z,0.43
2023-11-21T13:30:27.492Z,0.50
2023-11-21T13:33:20.148Z,0.52
2023-11-21T13:36:11.462Z,0.55
2023-11-21T13:38:59.924Z,0.80
2023-11-21T13:41:49.407Z,0.43
2023-11-21T13:44:39.424Z,0.80
2023-11-21T13:47:30.520Z,0.65
2023-11-21T13:50:25.043Z,0.93
2023-11-21T13:53:23.770Z,0.70
2023-11-21T13:56:10.993Z,0.50
2023-11-21T13:58:56.848Z,0.60
2023-11-21T14:01:57.356Z,0.60
2023-11-21T14:04:55.719Z,0.47
2023-11-21T14:07:49.004Z,0.40
2023-11-21T14:10:41.396Z,0.70
2023-11-21T14:13:28.329Z,0.60
2023-11-21T14:16:15.212Z,0.50
2023-11-21T14:19:10.775Z,0.70
2023-11-21T14:21:57.125Z,0.47
2023-11-21T14:24:46.831Z,0.55
2023-11-21T14:27:34.491Z,0.47
2023-11-21T14:30:23.404Z,0.40
2023-11-21T14:33:09.775Z,0.45
2023-11-21T14:35:55.084Z,0.43
2023-11-21T14:38:40.677Z,0.28
2023-11-21T14:41:26.600Z,0.30
2023-11-21T14:44:13.465Z,0.40
2023-11-21T14:47:00.419Z,0.28
2023-11-21T14:49:57.460Z,0.40
2023-11-21T14:52:56.633Z,0.50
2023-11-21T14:55:57.984Z,0.32
2023-11-21T14:58:43.977Z,0.52
2023-11-21T15:01:47.339Z,0.40
2023-11-21T15:04:40.432Z,0.70
2023-11-21T15:07:28.520Z,0.70
2023-11-21T15:10:17.017Z,1.00
2023-11-21T15:13:03.953Z,0.85
2023-11-21T15:15:50.377Z,0.90
2023-11-21T15:18:37.131Z,0.85
2023-11-21T15:21:25.265Z,0.77
2023-11-21T15:24:12.096Z,0.90
2023-11-21T15:26:57.499Z,0.77
2023-11-21T15:29:43.987Z,0.82
2023-11-21T15:32:30.064Z,0.98
2023-11-21T15:35:16.153Z,1.00
2023-11-21T15:38:02.697Z,0.95
2023-11-21T15:40:48.875Z,0.88
2023-11-21T15:43:34.297Z,0.90
2023-11-21T15:46:20.705Z,1.05
2023-11-21T15:49:13.386Z,1.00
2023-11-21T15:52:00.803Z,1.13
2023-11-21T15:54:47.514Z,1.05
2023-11-21T15:57:33.070Z,0.90
2023-11-21T16:00:21.274Z,1.00
2023-11-21T16:03:06.894Z,1.00
2023-11-21T16:05:52.604Z,1.33
2023-11-21T16:08:38.157Z,0.90
2023-11-21T16:11:24.386Z,1.17
2023-11-21T16:14:09.845Z,0.80
2023-11-21T16:16:55.500Z,0.93
2023-11-21T16:19:43.337Z,1.30
2023-11-21T16:22:29.370Z,1.27
2023-11-21T16:25:15.311Z,1.40
2023-11-21T16:28:05.202Z,0.90
2023-11-21T16:30:54.086Z,2.83
2023-11-21T16:33:40.215Z,2.83
2023-11-21T16:36:25.713Z,2.70
2023-11-21T16:39:14.557Z,2.70
2023-11-21T16:41:59.871Z,1.60
2023-11-21T16:44:45.413Z,1.15
2023-11-21T16:47:33.344Z,1.23
2023-11-21T16:50:19.462Z,0.90
2023-11-21T16:53:05.207Z,1.13
2023-11-21T16:55:50.745Z,0.88
2023-11-21T16:58:37.208Z,0.80
2023-11-21T17:01:22.966Z,0.90
2023-11-21T17:04:09.877Z,0.80
2023-11-21T17:06:55.154Z,0.98
2023-11-21T17:09:41.073Z,1.20
2023-11-21T17:12:28.818Z,1.00
2023-11-21T17:15:14.388Z,0.80
2023-11-21T17:18:02.416Z,0.90
2023-11-21T17:20:47.883Z,1.00
2023-11-21T17:23:36.051Z,1.10
2023-11-21T17:26:21.567Z,1.10
2023-11-21T17:29:07.792Z,1.10
2023-11-21T17:31:53.691Z,1.75
2023-11-21T17:34:40.491Z,1.33
2023-11-21T17:37:46.204Z,1.15
2023-11-21T17:40:31.502Z,1.25
2023-11-21T17:43:18.442Z,1.20
2023-11-21T17:46:04.173Z,1.50
2023-11-21T17:48:53.570Z,1.50
2023-11-21T17:51:40.465Z,1.20
2023-11-21T17:54:26.125Z,1.58
2023-11-21T17:57:13.083Z,1.52
2023-11-21T17:59:58.995Z,1.40
2023-11-21T18:02:44.401Z,1.50
2023-11-21T18:05:29.767Z,1.48
2023-11-21T18:08:15.946Z,1.40
2023-11-21T18:11:02.513Z,1.40
2023-11-21T18:13:48.394Z,1.88
2023-11-21T18:16:33.884Z,1.40
2023-11-21T18:19:20.452Z,1.50
2023-11-21T18:22:07.054Z,1.70
2023-11-21T18:24:58.076Z,1.30
2023-11-21T18:27:44.140Z,1.40
2023-11-21T18:30:29.510Z,1.55
2023-11-21T18:33:15.326Z,1.33
2023-11-21T18:36:00.991Z,1.42
2023-11-21T18:38:47.083Z,1.38
2023-11-21T18:41:33.743Z,1.50
2023-11-21T18:44:19.619Z,1.90
2023-11-21T18:47:05.961Z,1.65
2023-11-21T18:49:51.301Z,1.60
2023-11-21T18:52:36.936Z,1.52
2023-11-21T18:55:22.869Z,1.90
2023-11-21T18:58:08.569Z,2.03
2023-11-21T19:00:54.526Z,2.25
2023-11-21T19:03:43.284Z,2.47
2023-11-21T19:06:28.825Z,2.13
2023-11-21T19:09:14.689Z,1.67
2023-11-21T19:12:00.592Z,1.42
2023-11-21T19:14:47.394Z,1.25
2023-11-21T19:17:33.781Z,1.50
2023-11-21T19:20:19.699Z,1.55
2023-11-21T19:23:04.990Z,1.40
2023-11-21T19:25:50.565Z,1.45
2023-11-21T19:28:35.956Z,1.48
2023-11-21T19:31:22.154Z,1.50
2023-11-21T19:34:07.757Z,1.20
2023-11-21T19:36:53.325Z,1.50
2023-11-21T19:39:38.656Z,1.60
2023-11-21T19:42:25.415Z,1.70
2023-11-21T19:45:11.277Z,1.83
2023-11-21T19:47:56.862Z,1.77
2023-11-21T19:50:43.117Z,1.52
2023-11-21T19:53:28.588Z,1.88
2023-11-21T19:56:14.967Z,1.70
2023-11-21T19:59:00.459Z,2.20
2023-11-21T20:01:46.215Z,1.90
2023-11-21T20:04:31.748Z,1.80
2023-11-21T20:07:22.320Z,1.85
2023-11-21T20:10:08.992Z,2.40
2023-11-21T20:12:58.857Z,2.30
2023-11-21T20:15:45.376Z,2.30
2023-11-21T20:18:31.900Z,1.95
2023-11-21T20:21:21.853Z,2.00
2023-11-21T20:24:07.811Z,1.80
2023-11-21T20:26:54.411Z,2.00
2023-11-21T20:29:43.018Z,1.70
2023-11-21T20:32:28.705Z,1.85
2023-11-21T20:35:14.508Z,1.98
2023-11-21T20:37:59.872Z,1.90
2023-11-21T20:40:45.619Z,2.10
2023-11-21T20:43:31.238Z,2.15
2023-11-21T20:46:16.936Z,2.40
2023-11-21T20:49:02.643Z,2.70
2023-11-21T20:51:48.202Z,2.60
2023-11-21T20:54:33.474Z,2.47
2023-11-21T20:57:19.281Z,2.20
2023-11-21T21:00:11.286Z,2.13
2023-11-21T21:02:57.616Z,2.00
2023-11-21T21:05:43.193Z,2.00
2023-11-21T21:08:28.621Z,2.05
2023-11-21T21:11:18.628Z,2.10
2023-11-21T21:14:04.007Z,2.25
2023-11-21T21:16:49.809Z,2.10
2023-11-21T21:19:35.351Z,2.65
2023-11-21T21:22:20.838Z,2.45
2023-11-21T21:25:07.612Z,2.72
2023-11-21T21:27:54.928Z,2.40
2023-11-21T21:30:43.100Z,2.40
2023-11-21T21:33:28.875Z,2.25
2023-11-21T21:36:14.972Z,2.17
2023-11-21T21:39:02.284Z,1.92
2023-11-21T21:41:47.850Z,2.17
2023-11-21T21:44:34.765Z,2.05
2023-11-21T21:47:20.253Z,1.90
2023-11-21T21:50:06.596Z,1.90
2023-11-21T21:52:52.264Z,2.25
2023-11-21T21:55:38.262Z,2.10
2023-11-21T21:58:24.024Z,2.17
2023-11-21T22:01:09.802Z,2.05
2023-11-21T22:03:56.811Z,2.30
2023-11-21T22:06:42.971Z,2.10
2023-11-21T22:09:28.609Z,2.40
2023-11-21T22:12:14.126Z,2.35
2023-11-21T22:14:59.804Z,2.17
2023-11-21T22:17:45.266Z,2.25
2023-11-21T22:20:30.620Z,2.03
2023-11-21T22:23:16.353Z,2.40
2023-11-21T22:26:02.010Z,2.15
2023-11-21T22:28:47.494Z,2.10
2023-11-21T22:31:32.917Z,2.70
2023-11-21T22:34:20.161Z,2.88
2023-11-21T22:37:06.146Z,2.80
2023-11-21T22:39:52.691Z,3.53
2023-11-21T22:42:38.030Z,3.65
2023-11-21T22:45:24.029Z,2.47
2023-11-21T22:48:10.169Z,2.28
2023-11-21T22:50:55.846Z,2.60
2023-11-21T22:53:41.281Z,2.67
2023-11-21T22:56:30.125Z,2.65
2023-11-21T22:59:16.203Z,2.00
2023-11-21T23:02:01.763Z,2.20
2023-11-21T23:04:47.287Z,2.13
2023-11-21T23:07:32.584Z,1.80
2023-11-21T23:10:19.092Z,1.83
2023-11-21T23:13:04.528Z,1.90
2023-11-21T23:15:53.718Z,2.22
2023-11-21T23:18:40.413Z,1.90
2023-11-21T23:21:29.960Z,1.70
2023-11-21T23:24:20.577Z,1.75
2023-11-21T23:27:07.290Z,1.70
2023-11-21T23:29:55.506Z,2.00
2023-11-21T23:32:42.848Z,1.92
2023-11-21T23:35:28.389Z,2.10
2023-11-21T23:38:14.434Z,1.80
2023-11-21T23:41:00.219Z,1.90
2023-11-21T23:43:45.852Z,1.70
2023-11-21T23:46:34.892Z,2.08
2023-11-21T23:49:20.625Z,2.08
2023-11-21T23:52:06.739Z,1.88
2023-11-21T23:54:52.610Z,2.05
2023-11-21T23:57:38.084Z,1.80
